Latest Coastal Weather Observations for Onslow Airport

IDW60701

Issued at 8:14 am WST Sunday 25 September 2016 (issued every 10 minutes, with the page automatically refreshed every 10 minutes)

About coastal observations | Map of coastal stations | Coastal observations for WA | Marine services | Other Formats
Station Details ID: 005017 Name: ONSLOW AIRPORT Lat: -21.67 Lon: 115.11 Height: 10.5 m
Data from the previous 72 hours. | See also: Recent months at Onslow Airport
Date/Time
WST
Temp
°C
Wind Pressure Rain since
9am
mm
Weather Cloud Vis
km
Sea
Height
m
Swell
Dir  Spd
kts
Gust
kts
hPa Trend Height
m
Period
s
Dir
25/08:00am 18.2 S 20 26 1014.8 - 0.0 - - - - - - -
25/07:30am 16.7 S 18 24 1014.6 - 0.0 - - - - - - -
25/07:00am 15.5 SSW 17 22 1014.3 - 0.0 - - - - - - -
25/06:30am 14.7 SSW 15 19 1014.2 - 0.0 - - - - - - -
25/06:00am 14.5 SSW 15 18 1013.9 - 0.0 - - - - - - -
25/05:30am 14.7 SSW 13 18 1013.6 - 0.0 - - - - - - -
25/05:00am 14.8 SSW 13 17 1013.2 - 0.0 - - - - - - -
25/04:30am 15.1 SSW 14 17 1013.0 - 0.0 - - - - - - -
25/04:00am 15.4 SSW 14 18 1012.8 - 0.0 - - - - - - -
25/03:30am 15.5 SSW 13 16 1012.8 - 0.0 - - - - - - -
25/03:00am 15.7 SSW 13 15 1012.7 - 0.0 - - - - - - -
25/02:30am 16.2 SSW 12 15 1012.7 - 0.0 - - - - - - -
25/02:00am 16.5 SSW 13 15 1012.7 - 0.0 - - - - - - -
25/01:30am 16.7 SSW 11 14 1012.7 - 0.0 - - - - - - -
25/01:00am 17.2 SSW 11 14 1012.8 - 0.0 - - - - - - -
25/12:30am 17.6 SSW 12 16 1012.7 - 0.0 - - - - - - -
25/12:00am 18.0 SW 11 15 1012.7 - 0.0 - - - - - - -
 
Date/Time
WST
Temp
°C
Wind Pressure Rain since
9am
mm
Weather Cloud Vis
km
Sea
Height
m
Swell
Dir  Spd
kts
Gust
kts
hPa Trend Height
m
Period
s
Dir
24/11:30pm 18.4 SW 12 15 1012.8 - 0.0 - - - - - - -
24/11:00pm 18.7 SW 13 16 1012.8 - 0.0 - - - - - - -
24/10:30pm 19.4 SW 14 17 1012.8 - 0.0 - - - - - - -
24/10:00pm 20.0 SW 15 18 1012.9 - 0.0 - - - - - - -
24/09:30pm 20.2 SW 15 19 1012.9 - 0.0 - - - - - - -
24/09:00pm 20.7 SW 15 19 1012.8 - 0.0 - - - - - - -
24/08:30pm 20.9 WSW 13 17 1012.5 - 0.0 - - - - - - -
24/08:00pm 21.1 WSW 11 14 1012.3 - 0.0 - - - - - - -
24/07:30pm 21.2 WSW 11 16 1012.1 - 0.0 - - - - - - -
24/07:00pm 21.1 W 10 14 1011.7 - 0.0 - - - - - - -
24/06:30pm 21.6 W 13 16 1011.6 - 0.0 - - - - - - -
24/06:00pm 22.2 W 16 21 1011.6 - 0.0 - - - - - - -
24/05:30pm 23.0 W 17 22 1011.5 - 0.0 - - - - - - -
24/05:00pm 24.4 W 17 22 1011.2 - 0.0 - - - - - - -
24/04:30pm 24.5 WNW 19 24 1011.3 - 0.0 - - - - - - -
24/04:00pm 24.7 W 19 25 1011.4 - 0.0 - - - - - - -
24/03:30pm 24.7 WNW 21 26 1011.6 - 0.0 - - - - - - -
24/03:00pm 24.8 WNW 19 24 1011.6 - 0.0 - - - - - - -
24/02:30pm 25.0 WNW 19 23 1012.0 - 0.0 - - - - - - -
24/02:00pm 25.2 WNW 18 23 1012.1 - 0.0 - - - - - - -
24/01:30pm 26.0 WNW 15 19 1012.4 - 0.0 - - - - - - -
24/01:00pm 28.2 S 6 12 1012.8 - 0.0 - - - - - - -
24/12:30pm 28.4 S 8 14 1013.2 - 0.0 - - - - - - -
24/12:00pm 27.3 SSE 7 12 1013.7 - 0.0 - - - - - - -
24/11:30am 26.5 S 9 14 1014.1 - 0.0 - - - - - - -
24/11:00am 26.6 SE 8 11 1014.5 - 0.0 - - - - - - -
24/10:30am 25.6 SE 11 14 1014.9 - 0.0 - - - - - - -
24/10:00am 24.7 SSE 10 14 1015.3 - 0.0 - - - - - - -
24/09:30am 23.3 SSE 12 15 1015.6 - 0.0 - - - - - - -
24/09:00am 21.8 SSE 14 17 1015.7 - 0.0 - - - - - - -
24/08:30am 20.7 SSE 15 19 1015.5 - 0.0 - - - - - - -
24/08:00am 19.3 S 16 20 1015.4 - 0.0 - - - - - - -
24/07:30am 17.6 S 15 19 1015.1 - 0.0 - - - - - - -
24/07:00am 16.0 S 13 18 1014.8 - 0.0 - - - - - - -
24/06:30am 14.8 S 11 14 1014.7 - 0.0 - - - - - - -
24/06:00am 14.6 S 11 15 1014.4 - 0.0 - - - - - - -
24/05:30am 15.0 SSW 11 14 1013.9 - 0.0 - - - - - - -
24/05:00am 15.4 SSW 13 16 1013.7 - 0.0 - - - - - - -
24/04:30am 15.7 SSW 12 16 1013.6 - 0.0 - - - - - - -
24/04:00am 16.0 SSW 12 16 1013.5 - 0.0 - - - - - - -
24/03:30am 16.3 SSW 13 18 1013.3 - 0.0 - - - - - - -
24/03:00am 16.3 SSW 13 16 1013.3 - 0.0 - - - - - - -
24/02:30am 16.6 SSW 13 16 1013.3 - 0.0 - - - - - - -
24/02:00am 16.8 SSW 11 14 1013.3 - 0.0 - - - - - - -
24/01:30am 17.3 SSW 13 17 1013.4 - 0.0 - - - - - - -
24/01:00am 17.7 SSW 15 19 1013.5 - 0.0 - - - - - - -
24/12:30am 18.0 SSW 15 19 1013.5 - 0.0 - - - - - - -
24/12:00am 18.1 SW 13 17 1013.7 - 0.0 - - - - - - -
 
Date/Time
WST
Temp
°C
Wind Pressure Rain since
9am
mm
Weather Cloud Vis
km
Sea
Height
m
Swell
Dir  Spd
kts
Gust
kts
hPa Trend Height
m
Period
s
Dir
23/11:30pm 18.2 SW 13 16 1013.7 - 0.0 - - - - - - -
23/11:00pm 18.4 SW 14 16 1013.9 - 0.0 - - - - - - -
23/10:30pm 17.8 SW 10 11 1014.0 - 0.0 - - - - - - -
23/10:00pm 18.2 WSW 8 11 1014.2 - 0.0 - - - - - - -
23/09:30pm 20.2 SSW 8 10 1013.9 - 0.0 - - - - - - -
23/09:00pm 21.2 S 10 13 1013.7 - 0.0 - - - - - - -
23/08:30pm 21.2 S 9 11 1013.4 - 0.0 - - - - - - -
23/08:00pm 22.2 S 9 10 1013.0 - 0.0 - - - - - - -
23/07:30pm 23.5 SSW 9 15 1012.6 - 0.0 - - - - - - -
23/07:00pm 23.7 S 10 13 1012.1 - 0.0 - - - - - - -
23/06:30pm 24.6 S 10 13 1011.8 - 0.0 - - - - - - -
23/06:00pm 26.1 S 13 17 1011.5 - 0.0 - - - - - - -
23/05:30pm 27.1 S 13 19 1011.3 - 0.0 - - - - - - -
23/05:00pm 27.7 SSW 14 18 1011.1 - 0.0 - - - - - - -
23/04:30pm 28.2 S 12 17 1011.1 - 0.0 - - - - - - -
23/04:00pm 28.7 SSW 14 21 1011.2 - 0.0 - - - - - - -
23/03:30pm 28.2 S 11 16 1011.2 - 0.0 - - - - - - -
23/03:00pm 28.4 S 13 18 1011.3 - 0.0 - - - - - - -
23/02:30pm 28.4 S 12 17 1011.4 - 0.0 - - - - - - -
23/02:00pm 28.4 S 14 19 1011.9 - 0.0 - - - - - - -
23/01:30pm 27.7 S 14 22 1012.3 - 0.0 - - - - - - -
23/01:00pm 26.9 S 15 22 1012.7 - 0.0 - - - - - - -
23/12:30pm 27.0 S 15 23 1013.1 - 0.0 - - - - - - -
23/12:00pm 26.0 S 16 22 1013.6 - 0.0 - - - - - - -
23/11:30am 25.5 S 16 24 1013.9 - 0.0 - - - - - - -
23/11:00am 25.2 S 16 21 1014.5 - 0.0 - - - - - - -
23/10:30am 24.3 S 17 22 1015.0 - 0.0 - - - - - - -
23/10:00am 23.2 SSE 17 23 1015.4 - 0.0 - - - - - - -
23/09:30am 22.4 S 17 23 1015.6 - 0.0 - - - - - - -
23/09:00am 21.4 S 18 23 1015.9 - 0.0 - - - - - - -
23/08:30am 20.4 S 18 22 1016.0 - 0.0 - - - - - - -
23/08:00am 18.8 S 16 19 1015.9 - 0.0 - - - - - - -
23/07:30am 17.2 SSW 13 17 1015.7 - 0.0 - - - - - - -
23/07:00am 16.2 SSW 12 15 1015.4 - 0.0 - - - - - - -
23/06:30am 15.5 SSW 12 14 1015.1 - 0.0 - - - - - - -
23/06:00am 15.2 SSW 12 15 1014.8 - 0.0 - - - - - - -
23/05:30am 15.2 SSW 12 15 1014.4 - 0.0 - - - - - - -
23/05:00am 15.6 SSW 10 14 1014.2 - 0.0 - - - - - - -
23/04:30am 16.0 SSW 11 15 1013.9 - 0.0 - - - - - - -
23/04:00am 16.2 SSW 11 15 1013.9 - 0.0 - - - - - - -
23/03:30am 16.4 SW 10 14 1013.6 - 0.0 - - - - - - -
23/03:00am 16.6 SW 12 15 1013.6 - 0.0 - - - - - - -
23/02:30am 17.0 SW 12 15 1013.7 - 0.0 - - - - - - -
23/02:00am 17.2 SW 11 15 1013.7 - 0.0 - - - - - - -
23/01:30am 17.5 SW 11 14 1013.8 - 0.0 - - - - - - -
23/01:00am 18.2 SW 12 16 1014.0 - 0.0 - - - - - - -
23/12:30am 18.6 SW 13 17 1014.2 - 0.0 - - - - - - -
23/12:00am 19.0 SW 15 18 1014.2 - 0.0 - - - - - - -
 
Date/Time
WST
Temp
°C
Wind Pressure Rain since
9am
mm
Weather Cloud Vis
km
Sea
Height
m
Swell
Dir  Spd
kts
Gust
kts
hPa Trend Height
m
Period
s
Dir
22/11:30pm 19.3 SW 13 17 1014.4 - 0.0 - - - - - - -
22/11:00pm 19.3 SW 11 14 1014.7 - 0.0 - - - - - - -
22/10:30pm 19.9 WSW 11 15 1014.8 - 0.0 - - - - - - -
22/10:00pm 20.4 SW 13 17 1014.5 - 0.0 - - - - - - -
22/09:30pm 21.0 SW 12 16 1014.3 - 0.0 - - - - - - -
22/09:00pm 21.7 SW 15 20 1014.1 - 0.0 - - - - - - -
22/08:30pm 21.3 WSW 10 13 1014.2 - 0.0 - - - - - - -
22/08:00pm 21.8 WSW 9 11 1014.1 - 0.0 - - - - - - -
22/07:30pm 22.0 W 9 12 1013.9 - 0.0 - - - - - - -
22/07:00pm 22.2 W 9 12 1013.4 - 0.0 - - - - - - -
22/06:30pm 22.6 W 10 13 1013.1 - 0.0 - - - - - - -
22/06:00pm 23.1 W 13 17 1013.0 - 0.0 - - - - - - -
22/05:30pm 22.9 WNW 14 18 1013.0 - 0.0 - - - - - - -
22/05:00pm 23.9 WNW 17 21 1012.9 - 0.0 - - - - - - -
22/04:30pm 24.3 W 17 20 1012.7 - 0.0 - - - - - - -
22/04:00pm 25.0 W 17 20 1012.7 - 0.0 - - - - - - -
22/03:30pm 25.1 WNW 18 23 1012.8 - 0.0 - - - - - - -
22/03:00pm 26.2 W 17 23 1012.6 - 0.0 - - - - - - -
22/02:30pm 26.2 WNW 19 25 1013.0 - 0.0 - - - - - - -
22/02:00pm 27.8 WSW 11 17 1012.7 - 0.0 - - - - - - -
22/01:30pm 27.7 SW 13 19 1013.0 - 0.0 - - - - - - -
22/01:00pm 27.0 SW 11 15 1013.7 - 0.0 - - - - - - -
22/12:30pm 27.2 W 10 16 1013.8 - 0.0 - - - - - - -
22/12:00pm 27.0 WSW 9 13 1014.2 - 0.0 - - - - - - -
22/11:30am 26.0 SSW 9 15 1014.6 - 0.0 - - - - - - -
22/11:00am 25.7 SW 9 13 1014.9 - 0.0 - - - - - - -
22/10:30am 25.9 SSW 9 14 1015.2 - 0.0 - - - - - - -
22/10:00am 23.8 SSW 9 14 1015.5 - 0.0 - - - - - - -
22/09:30am 22.8 SSW 9 13 1015.6 - 0.0 - - - - - - -
22/09:00am 22.3 S 8 12 1015.7 - 0.0 - - - - - - -
22/08:30am 22.5 S 7 10 1015.8 - 0.0 - - - - - - -

Other Formats:

Comma delimited format used in spreadsheet applications
http://www.bom.gov.au/fwo/IDW60701/IDW60701.95305.axf

JavaScript Object Notation format (JSON) in row-major order
http://www.bom.gov.au/fwo/IDW60701/IDW60701.95305.json